sensor_id;sensor_type;location;lat;lon;timestamp;pressure;altitude;pressure_sealevel;temperature;humidity
17521;BME280;8878;-33.370;-70.552;2023-05-25T00:02:17;92204.72;;;15.71;64.46
17521;BME280;8878;-33.370;-70.552;2023-05-25T00:04:51;92203.66;;;15.72;64.67
17521;BME280;8878;-33.370;-70.552;2023-05-25T00:07:21;92206.53;;;15.75;64.73
17521;BME280;8878;-33.370;-70.552;2023-05-25T00:09:50;92207.38;;;15.71;64.64
17521;BME280;8878;-33.370;-70.552;2023-05-25T00:12:20;92211.22;;;15.64;64.79
17521;BME280;8878;-33.370;-70.552;2023-05-25T00:14:49;92216.38;;;15.61;64.86
17521;BME280;8878;-33.370;-70.552;2023-05-25T00:17:19;92214.97;;;15.63;64.89
17521;BME280;8878;-33.370;-70.552;2023-05-25T00:19:51;92214.28;;;15.72;64.73
17521;BME280;8878;-33.370;-70.552;2023-05-25T00:22:23;92225.03;;;15.66;64.97
17521;BME280;8878;-33.370;-70.552;2023-05-25T00:24:54;92222.19;;;15.63;64.92
17521;BME280;8878;-33.370;-70.552;2023-05-25T00:27:24;92220.69;;;15.71;64.77
17521;BME280;8878;-33.370;-70.552;2023-05-25T00:29:54;92215.00;;;15.77;64.52
17521;BME280;8878;-33.370;-70.552;2023-05-25T00:32:24;92209.06;;;15.80;64.47
17521;BME280;8878;-33.370;-70.552;2023-05-25T00:34:55;92210.16;;;15.79;64.76
17521;BME280;8878;-33.370;-70.552;2023-05-25T00:37:25;92217.63;;;15.63;65.30
17521;BME280;8878;-33.370;-70.552;2023-05-25T00:39:55;92226.94;;;15.47;65.88
17521;BME280;8878;-33.370;-70.552;2023-05-25T00:42:24;92232.28;;;15.47;65.73
17521;BME280;8878;-33.370;-70.552;2023-05-25T00:44:54;92225.66;;;15.45;65.80
17521;BME280;8878;-33.370;-70.552;2023-05-25T00:47:24;92222.97;;;15.31;65.81
17521;BME280;8878;-33.370;-70.552;2023-05-25T00:49:55;92225.31;;;15.19;66.38
17521;BME280;8878;-33.370;-70.552;2023-05-25T00:52:26;92215.00;;;15.31;66.62
17521;BME280;8878;-33.370;-70.552;2023-05-25T00:55:00;92210.25;;;15.28;66.35
17521;BME280;8878;-33.370;-70.552;2023-05-25T00:57:33;92200.31;;;15.20;66.89
17521;BME280;8878;-33.370;-70.552;2023-05-25T01:00:04;92209.13;;;15.34;66.57
17521;BME280;8878;-33.370;-70.552;2023-05-25T01:02:38;92205.34;;;15.35;66.59
17521;BME280;8878;-33.370;-70.552;2023-05-25T01:05:11;92212.53;;;15.35;66.77
17521;BME280;8878;-33.370;-70.552;2023-05-25T01:07:43;92211.78;;;15.34;66.81
17521;BME280;8878;-33.370;-70.552;2023-05-25T01:10:15;92199.47;;;15.38;66.48
17521;BME280;8878;-33.370;-70.552;2023-05-25T01:12:45;92210.66;;;15.35;66.58
17521;BME280;8878;-33.370;-70.552;2023-05-25T01:15:16;92200.72;;;15.27;66.13
17521;BME280;8878;-33.370;-70.552;2023-05-25T01:17:48;92199.00;;;15.04;66.91
17521;BME280;8878;-33.370;-70.552;2023-05-25T01:20:21;92187.22;;;14.77;68.25
17521;BME280;8878;-33.370;-70.552;2023-05-25T01:22:56;92191.03;;;15.04;68.16
17521;BME280;8878;-33.370;-70.552;2023-05-25T01:25:32;92184.13;;;15.03;67.74
17521;BME280;8878;-33.370;-70.552;2023-05-25T01:28:04;92207.97;;;15.21;67.95
17521;BME280;8878;-33.370;-70.552;2023-05-25T01:30:36;92187.59;;;15.17;67.73
17521;BME280;8878;-33.370;-70.552;2023-05-25T01:33:10;92181.59;;;15.11;67.49
17521;BME280;8878;-33.370;-70.552;2023-05-25T01:35:41;92188.09;;;15.05;67.68
17521;BME280;8878;-33.370;-70.552;2023-05-25T01:38:13;92188.28;;;15.09;67.58
17521;BME280;8878;-33.370;-70.552;2023-05-25T01:40:43;92172.56;;;15.26;67.31
17521;BME280;8878;-33.370;-70.552;2023-05-25T01:43:13;92176.50;;;15.42;66.49
17521;BME280;8878;-33.370;-70.552;2023-05-25T01:45:43;92188.94;;;15.33;66.23
17521;BME280;8878;-33.370;-70.552;2023-05-25T01:48:20;92193.22;;;15.29;66.36
17521;BME280;8878;-33.370;-70.552;2023-05-25T01:50:58;92184.59;;;15.37;66.29
17521;BME280;8878;-33.370;-70.552;2023-05-25T01:53:34;92173.75;;;15.34;66.20
17521;BME280;8878;-33.370;-70.552;2023-05-25T01:56:06;92184.78;;;15.27;66.29
17521;BME280;8878;-33.370;-70.552;2023-05-25T01:58:39;92193.50;;;15.14;66.69
17521;BME280;8878;-33.370;-70.552;2023-05-25T02:01:13;92172.22;;;15.14;66.88
17521;BME280;8878;-33.370;-70.552;2023-05-25T02:03:44;92185.94;;;15.35;66.46
17521;BME280;8878;-33.370;-70.552;2023-05-25T02:06:15;92196.00;;;15.24;66.00
17521;BME280;8878;-33.370;-70.552;2023-05-25T02:08:47;92190.69;;;15.38;66.06
17521;BME280;8878;-33.370;-70.552;2023-05-25T02:11:16;92186.75;;;15.35;66.01
17521;BME280;8878;-33.370;-70.552;2023-05-25T02:13:45;92209.00;;;15.39;65.56
17521;BME280;8878;-33.370;-70.552;2023-05-25T02:16:15;92207.44;;;15.38;65.34
17521;BME280;8878;-33.370;-70.552;2023-05-25T02:18:45;92202.41;;;15.50;65.25
17521;BME280;8878;-33.370;-70.552;2023-05-25T02:21:14;92183.69;;;15.42;65.28
17521;BME280;8878;-33.370;-70.552;2023-05-25T02:23:45;92179.50;;;15.41;66.00
17521;BME280;8878;-33.370;-70.552;2023-05-25T02:26:15;92195.91;;;15.43;65.78
17521;BME280;8878;-33.370;-70.552;2023-05-25T02:28:45;92201.50;;;15.27;65.65
17521;BME280;8878;-33.370;-70.552;2023-05-25T02:31:14;92194.03;;;15.43;65.97
17521;BME280;8878;-33.370;-70.552;2023-05-25T02:33:45;92194.69;;;15.21;66.01
17521;BME280;8878;-33.370;-70.552;2023-05-25T02:36:14;92193.63;;;15.22;66.05
17521;BME280;8878;-33.370;-70.552;2023-05-25T02:38:45;92188.97;;;15.14;66.33
17521;BME280;8878;-33.370;-70.552;2023-05-25T02:41:16;92191.19;;;15.26;66.10
17521;BME280;8878;-33.370;-70.552;2023-05-25T02:43:45;92198.84;;;15.27;66.36
17521;BME280;8878;-33.370;-70.552;2023-05-25T02:46:15;92192.25;;;15.25;66.03
17521;BME280;8878;-33.370;-70.552;2023-05-25T02:48:44;92190.94;;;14.76;67.32
17521;BME280;8878;-33.370;-70.552;2023-05-25T02:51:14;92197.31;;;15.08;67.08
17521;BME280;8878;-33.370;-70.552;2023-05-25T02:53:45;92185.66;;;15.22;66.90
17521;BME280;8878;-33.370;-70.552;2023-05-25T02:56:14;92191.66;;;15.28;66.06
17521;BME280;8878;-33.370;-70.552;2023-05-25T02:58:44;92195.94;;;14.97;66.60
17521;BME280;8878;-33.370;-70.552;2023-05-25T03:01:14;92195.00;;;14.87;67.14
17521;BME280;8878;-33.370;-70.552;2023-05-25T03:03:44;92196.06;;;14.86;67.51
17521;BME280;8878;-33.370;-70.552;2023-05-25T03:06:18;92189.38;;;14.75;67.74
17521;BME280;8878;-33.370;-70.552;2023-05-25T03:08:50;92187.97;;;14.78;67.87
17521;BME280;8878;-33.370;-70.552;2023-05-25T03:11:20;92206.22;;;14.84;67.82
17521;BME280;8878;-33.370;-70.552;2023-05-25T03:13:50;92204.84;;;14.87;67.80
17521;BME280;8878;-33.370;-70.552;2023-05-25T03:16:20;92197.28;;;14.94;67.54
17521;BME280;8878;-33.370;-70.552;2023-05-25T03:18:51;92182.97;;;15.09;67.58
17521;BME280;8878;-33.370;-70.552;2023-05-25T03:21:21;92201.06;;;15.07;67.31
17521;BME280;8878;-33.370;-70.552;2023-05-25T03:23:52;92199.91;;;15.13;67.12
17521;BME280;8878;-33.370;-70.552;2023-05-25T03:26:21;92195.41;;;15.27;66.50
17521;BME280;8878;-33.370;-70.552;2023-05-25T03:28:52;92188.91;;;15.19;66.51
17521;BME280;8878;-33.370;-70.552;2023-05-25T03:31:23;92194.44;;;14.91;66.86
17521;BME280;8878;-33.370;-70.552;2023-05-25T03:33:52;92186.47;;;14.91;67.14
17521;BME280;8878;-33.370;-70.552;2023-05-25T03:36:22;92178.53;;;15.04;67.20
17521;BME280;8878;-33.370;-70.552;2023-05-25T03:38:55;92191.06;;;15.17;66.42
17521;BME280;8878;-33.370;-70.552;2023-05-25T03:41:25;92191.72;;;15.09;66.76
17521;BME280;8878;-33.370;-70.552;2023-05-25T03:43:54;92175.19;;;14.99;66.62
17521;BME280;8878;-33.370;-70.552;2023-05-25T03:46:24;92173.81;;;15.15;66.46
17521;BME280;8878;-33.370;-70.552;2023-05-25T03:48:53;92182.97;;;15.09;66.14
17521;BME280;8878;-33.370;-70.552;2023-05-25T03:51:23;92180.28;;;14.95;66.56
17521;BME280;8878;-33.370;-70.552;2023-05-25T03:53:54;92166.16;;;14.81;67.05
17521;BME280;8878;-33.370;-70.552;2023-05-25T03:56:23;92167.13;;;15.04;66.80
17521;BME280;8878;-33.370;-70.552;2023-05-25T03:58:53;92176.66;;;15.05;66.40
17521;BME280;8878;-33.370;-70.552;2023-05-25T04:01:22;92177.41;;;14.92;67.01
17521;BME280;8878;-33.370;-70.552;2023-05-25T04:03:52;92183.16;;;14.99;66.99
17521;BME280;8878;-33.370;-70.552;2023-05-25T04:06:22;92197.19;;;14.99;66.94
17521;BME280;8878;-33.370;-70.552;2023-05-25T04:08:51;92167.88;;;14.91;67.03
17521;BME280;8878;-33.370;-70.552;2023-05-25T04:11:23;92164.06;;;15.10;66.64
17521;BME280;8878;-33.370;-70.552;2023-05-25T04:13:53;92177.53;;;15.00;66.43
17521;BME280;8878;-33.370;-70.552;2023-05-25T04:16:22;92180.22;;;15.14;66.12
17521;BME280;8878;-33.370;-70.552;2023-05-25T04:18:52;92174.41;;;14.79;67.57
17521;BME280;8878;-33.370;-70.552;2023-05-25T04:21:21;92184.91;;;15.03;66.80
17521;BME280;8878;-33.370;-70.552;2023-05-25T04:23:50;92181.97;;;15.05;66.98
17521;BME280;8878;-33.370;-70.552;2023-05-25T04:26:22;92174.81;;;15.05;67.23
17521;BME280;8878;-33.370;-70.552;2023-05-25T04:28:53;92187.03;;;15.20;66.83
17521;BME280;8878;-33.370;-70.552;2023-05-25T04:31:23;92189.03;;;14.96;67.40
17521;BME280;8878;-33.370;-70.552;2023-05-25T04:33:52;92175.16;;;14.29;70.03
17521;BME280;8878;-33.370;-70.552;2023-05-25T04:36:23;92163.09;;;14.18;70.94
17521;BME280;8878;-33.370;-70.552;2023-05-25T04:38:53;92171.78;;;14.04;72.49
17521;BME280;8878;-33.370;-70.552;2023-05-25T04:41:24;92198.94;;;14.15;71.98
17521;BME280;8878;-33.370;-70.552;2023-05-25T04:43:55;92192.50;;;14.21;72.35
17521;BME280;8878;-33.370;-70.552;2023-05-25T04:46:25;92185.66;;;13.78;73.54
17521;BME280;8878;-33.370;-70.552;2023-05-25T04:48:55;92202.31;;;14.02;73.17
17521;BME280;8878;-33.370;-70.552;2023-05-25T04:51:24;92172.75;;;13.90;74.90
17521;BME280;8878;-33.370;-70.552;2023-05-25T04:53:54;92174.69;;;13.84;75.74
17521;BME280;8878;-33.370;-70.552;2023-05-25T04:56:25;92153.78;;;13.59;76.70
17521;BME280;8878;-33.370;-70.552;2023-05-25T04:58:54;92146.44;;;13.93;75.77
17521;BME280;8878;-33.370;-70.552;2023-05-25T05:01:24;92170.16;;;14.46;74.19
17521;BME280;8878;-33.370;-70.552;2023-05-25T05:03:54;92163.47;;;14.30;73.59
17521;BME280;8878;-33.370;-70.552;2023-05-25T05:06:24;92205.44;;;14.28;74.06
17521;BME280;8878;-33.370;-70.552;2023-05-25T05:08:53;92146.19;;;14.14;73.91
17521;BME280;8878;-33.370;-70.552;2023-05-25T05:11:24;92154.16;;;14.51;73.64
17521;BME280;8878;-33.370;-70.552;2023-05-25T05:13:54;92175.66;;;14.68;72.75
17521;BME280;8878;-33.370;-70.552;2023-05-25T05:16:24;92206.00;;;14.25;73.45
17521;BME280;8878;-33.370;-70.552;2023-05-25T05:18:57;92166.13;;;14.30;73.82
17521;BME280;8878;-33.370;-70.552;2023-05-25T05:21:26;92146.47;;;14.12;74.21
17521;BME280;8878;-33.370;-70.552;2023-05-25T05:23:57;92128.38;;;14.14;74.51
17521;BME280;8878;-33.370;-70.552;2023-05-25T05:26:28;92201.84;;;14.37;74.00
17521;BME280;8878;-33.370;-70.552;2023-05-25T05:28:58;92224.41;;;14.40;74.10
17521;BME280;8878;-33.370;-70.552;2023-05-25T05:31:27;92154.38;;;13.98;74.87
17521;BME280;8878;-33.370;-70.552;2023-05-25T05:33:57;92130.34;;;14.27;74.76
17521;BME280;8878;-33.370;-70.552;2023-05-25T05:36:26;92164.97;;;14.36;74.39
17521;BME280;8878;-33.370;-70.552;2023-05-25T05:38:59;92163.56;;;14.62;73.45
17521;BME280;8878;-33.370;-70.552;2023-05-25T05:41:31;92168.06;;;14.62;73.15
17521;BME280;8878;-33.370;-70.552;2023-05-25T05:44:00;92177.19;;;14.88;72.75
17521;BME280;8878;-33.370;-70.552;2023-05-25T05:46:29;92200.91;;;14.66;72.35
17521;BME280;8878;-33.370;-70.552;2023-05-25T05:48:59;92185.41;;;14.73;72.59
17521;BME280;8878;-33.370;-70.552;2023-05-25T05:51:29;92143.00;;;14.68;72.76
17521;BME280;8878;-33.370;-70.552;2023-05-25T05:53:58;92181.06;;;14.63;72.90
17521;BME280;8878;-33.370;-70.552;2023-05-25T05:56:30;92138.59;;;14.63;72.64
17521;BME280;8878;-33.370;-70.552;2023-05-25T05:58:59;92131.13;;;14.79;72.32
17521;BME280;8878;-33.370;-70.552;2023-05-25T06:01:30;92153.56;;;14.86;72.16
17521;BME280;8878;-33.370;-70.552;2023-05-25T06:03:59;92178.75;;;14.75;72.33
17521;BME280;8878;-33.370;-70.552;2023-05-25T06:06:28;92177.66;;;14.76;71.97
17521;BME280;8878;-33.370;-70.552;2023-05-25T06:08:58;92165.19;;;14.58;72.53
17521;BME280;8878;-33.370;-70.552;2023-05-25T06:11:31;92161.53;;;14.17;74.24
17521;BME280;8878;-33.370;-70.552;2023-05-25T06:14:01;92140.31;;;14.54;73.87
17521;BME280;8878;-33.370;-70.552;2023-05-25T06:16:30;92130.03;;;14.66;73.16
17521;BME280;8878;-33.370;-70.552;2023-05-25T06:19:00;92187.34;;;14.67;72.84
17521;BME280;8878;-33.370;-70.552;2023-05-25T06:21:29;92128.72;;;14.64;72.28
17521;BME280;8878;-33.370;-70.552;2023-05-25T06:23:58;92133.41;;;14.85;72.14
17521;BME280;8878;-33.370;-70.552;2023-05-25T06:26:30;92144.34;;;14.84;71.46
17521;BME280;8878;-33.370;-70.552;2023-05-25T06:28:59;92148.00;;;14.56;72.33
17521;BME280;8878;-33.370;-70.552;2023-05-25T06:31:28;92110.03;;;14.55;72.43
17521;BME280;8878;-33.370;-70.552;2023-05-25T06:33:58;92092.19;;;14.74;72.49
17521;BME280;8878;-33.370;-70.552;2023-05-25T06:36:28;92123.06;;;14.70;72.36
17521;BME280;8878;-33.370;-70.552;2023-05-25T06:38:58;92136.06;;;14.85;71.65
17521;BME280;8878;-33.370;-70.552;2023-05-25T06:41:29;92060.03;;;14.43;72.41
17521;BME280;8878;-33.370;-70.552;2023-05-25T06:43:59;92062.28;;;14.69;72.70
17521;BME280;8878;-33.370;-70.552;2023-05-25T06:46:28;92102.13;;;14.82;71.60
17521;BME280;8878;-33.370;-70.552;2023-05-25T06:49:00;92086.66;;;14.71;71.14
17521;BME280;8878;-33.370;-70.552;2023-05-25T06:51:29;92069.00;;;14.94;70.93
17521;BME280;8878;-33.370;-70.552;2023-05-25T06:53:59;92063.50;;;15.04;70.30
17521;BME280;8878;-33.370;-70.552;2023-05-25T06:56:30;92059.94;;;15.08;69.85
17521;BME280;8878;-33.370;-70.552;2023-05-25T06:59:00;92055.25;;;15.05;69.28
17521;BME280;8878;-33.370;-70.552;2023-05-25T07:01:29;92068.81;;;15.04;69.01
17521;BME280;8878;-33.370;-70.552;2023-05-25T07:03:58;92073.69;;;14.69;69.74
17521;BME280;8878;-33.370;-70.552;2023-05-25T07:06:28;92082.81;;;14.63;70.56
17521;BME280;8878;-33.370;-70.552;2023-05-25T07:08:57;92081.34;;;14.38;71.86
17521;BME280;8878;-33.370;-70.552;2023-05-25T07:11:27;92064.31;;;14.58;71.86
17521;BME280;8878;-33.370;-70.552;2023-05-25T07:13:59;92067.00;;;14.85;70.48
17521;BME280;8878;-33.370;-70.552;2023-05-25T07:16:29;92059.16;;;15.08;69.81
17521;BME280;8878;-33.370;-70.552;2023-05-25T07:18:58;92067.81;;;15.00;68.87
17521;BME280;8878;-33.370;-70.552;2023-05-25T07:21:31;92072.06;;;14.55;70.73
17521;BME280;8878;-33.370;-70.552;2023-05-25T07:24:01;92074.84;;;14.63;71.58
17521;BME280;8878;-33.370;-70.552;2023-05-25T07:26:31;92070.16;;;14.74;70.60
17521;BME280;8878;-33.370;-70.552;2023-05-25T07:29:02;92064.81;;;14.60;70.66
17521;BME280;8878;-33.370;-70.552;2023-05-25T07:31:31;92064.91;;;14.36;72.15
17521;BME280;8878;-33.370;-70.552;2023-05-25T07:34:01;92079.56;;;14.15;72.83
17521;BME280;8878;-33.370;-70.552;2023-05-25T07:36:31;92069.91;;;13.68;75.71
17521;BME280;8878;-33.370;-70.552;2023-05-25T07:39:01;92057.91;;;14.27;74.96
17521;BME280;8878;-33.370;-70.552;2023-05-25T07:41:31;92047.50;;;14.49;73.30
17521;BME280;8878;-33.370;-70.552;2023-05-25T07:44:03;92064.72;;;14.65;72.62
17521;BME280;8878;-33.370;-70.552;2023-05-25T07:46:32;92059.94;;;14.81;72.13
17521;BME280;8878;-33.370;-70.552;2023-05-25T07:49:01;92059.34;;;14.70;71.97
17521;BME280;8878;-33.370;-70.552;2023-05-25T07:51:32;92058.16;;;14.76;71.60
17521;BME280;8878;-33.370;-70.552;2023-05-25T07:54:01;92062.03;;;14.52;71.77
17521;BME280;8878;-33.370;-70.552;2023-05-25T07:56:31;92069.16;;;14.70;71.70
17521;BME280;8878;-33.370;-70.552;2023-05-25T07:59:02;92072.00;;;14.73;71.81
17521;BME280;8878;-33.370;-70.552;2023-05-25T08:01:32;92081.78;;;14.92;71.02
17521;BME280;8878;-33.370;-70.552;2023-05-25T08:04:01;92078.63;;;14.89;70.49
17521;BME280;8878;-33.370;-70.552;2023-05-25T08:06:31;92085.34;;;14.55;71.16
17521;BME280;8878;-33.370;-70.552;2023-05-25T08:09:02;92087.94;;;14.73;71.66
17521;BME280;8878;-33.370;-70.552;2023-05-25T08:11:33;92085.13;;;14.83;70.93
17521;BME280;8878;-33.370;-70.552;2023-05-25T08:14:05;92095.91;;;14.73;71.12
17521;BME280;8878;-33.370;-70.552;2023-05-25T08:16:34;92093.00;;;14.88;71.00
17521;BME280;8878;-33.370;-70.552;2023-05-25T08:19:04;92097.84;;;14.54;71.35
17521;BME280;8878;-33.370;-70.552;2023-05-25T08:21:33;92104.94;;;14.72;71.65
17521;BME280;8878;-33.370;-70.552;2023-05-25T08:24:03;92092.00;;;14.84;71.08
17521;BME280;8878;-33.370;-70.552;2023-05-25T08:26:34;92097.81;;;15.00;70.40
17521;BME280;8878;-33.370;-70.552;2023-05-25T08:29:06;92096.63;;;14.93;70.18
17521;BME280;8878;-33.370;-70.552;2023-05-25T08:31:35;92095.81;;;14.78;71.25
17521;BME280;8878;-33.370;-70.552;2023-05-25T08:34:04;92095.38;;;14.90;70.66
17521;BME280;8878;-33.370;-70.552;2023-05-25T08:36:34;92100.28;;;14.97;70.30
17521;BME280;8878;-33.370;-70.552;2023-05-25T08:39:04;92094.50;;;15.08;69.99
17521;BME280;8878;-33.370;-70.552;2023-05-25T08:41:35;92095.94;;;14.87;69.85
17521;BME280;8878;-33.370;-70.552;2023-05-25T08:44:10;92098.66;;;14.68;70.77
17521;BME280;8878;-33.370;-70.552;2023-05-25T08:46:41;92096.34;;;14.48;71.46
17521;BME280;8878;-33.370;-70.552;2023-05-25T08:49:11;92094.84;;;14.42;71.82
17521;BME280;8878;-33.370;-70.552;2023-05-25T08:51:45;92094.53;;;14.43;72.16
17521;BME280;8878;-33.370;-70.552;2023-05-25T08:54:18;92100.41;;;14.22;72.55
17521;BME280;8878;-33.370;-70.552;2023-05-25T08:56:50;92088.16;;;14.44;72.42
17521;BME280;8878;-33.370;-70.552;2023-05-25T08:59:30;92091.94;;;14.57;72.41
17521;BME280;8878;-33.370;-70.552;2023-05-25T09:02:14;92087.44;;;14.71;71.83
17521;BME280;8878;-33.370;-70.552;2023-05-25T09:04:48;92089.03;;;14.72;70.92
17521;BME280;8878;-33.370;-70.552;2023-05-25T09:07:17;92093.09;;;14.32;71.84
17521;BME280;8878;-33.370;-70.552;2023-05-25T09:09:48;92093.47;;;14.26;72.51
17521;BME280;8878;-33.370;-70.552;2023-05-25T09:12:18;92094.47;;;14.30;72.58
17521;BME280;8878;-33.370;-70.552;2023-05-25T09:14:51;92093.75;;;14.24;72.83
17521;BME280;8878;-33.370;-70.552;2023-05-25T09:17:21;92096.88;;;14.13;73.11
17521;BME280;8878;-33.370;-70.552;2023-05-25T09:19:51;92090.06;;;14.06;73.55
17521;BME280;8878;-33.370;-70.552;2023-05-25T09:22:20;92088.59;;;14.14;73.60
17521;BME280;8878;-33.370;-70.552;2023-05-25T09:24:50;92097.63;;;14.32;73.15
17521;BME280;8878;-33.370;-70.552;2023-05-25T09:27:22;92097.97;;;14.44;72.80
17521;BME280;8878;-33.370;-70.552;2023-05-25T09:29:53;92103.16;;;14.54;71.72
17521;BME280;8878;-33.370;-70.552;2023-05-25T09:32:25;92104.13;;;14.58;71.79
17521;BME280;8878;-33.370;-70.552;2023-05-25T09:34:55;92110.38;;;14.30;72.91
17521;BME280;8878;-33.370;-70.552;2023-05-25T09:37:25;92107.06;;;14.57;72.56
17521;BME280;8878;-33.370;-70.552;2023-05-25T09:39:56;92097.91;;;14.81;71.76
17521;BME280;8878;-33.370;-70.552;2023-05-25T09:42:26;92096.22;;;14.85;70.87
17521;BME280;8878;-33.370;-70.552;2023-05-25T09:44:57;92092.00;;;14.84;70.89
17521;BME280;8878;-33.370;-70.552;2023-05-25T09:47:27;92090.75;;;14.96;70.39
17521;BME280;8878;-33.370;-70.552;2023-05-25T09:49:57;92092.91;;;14.94;70.20
17521;BME280;8878;-33.370;-70.552;2023-05-25T09:52:26;92083.44;;;14.87;69.67
17521;BME280;8878;-33.370;-70.552;2023-05-25T09:54:57;92077.81;;;14.75;69.75
17521;BME280;8878;-33.370;-70.552;2023-05-25T09:57:26;92084.38;;;14.64;70.12
17521;BME280;8878;-33.370;-70.552;2023-05-25T09:59:58;92084.69;;;14.63;70.73
17521;BME280;8878;-33.370;-70.552;2023-05-25T10:02:31;92082.13;;;14.71;70.14
17521;BME280;8878;-33.370;-70.552;2023-05-25T10:05:00;92081.91;;;14.54;70.52
17521;BME280;8878;-33.370;-70.552;2023-05-25T10:07:30;92081.25;;;14.62;70.73
17521;BME280;8878;-33.370;-70.552;2023-05-25T10:10:03;92071.16;;;14.45;70.94
17521;BME280;8878;-33.370;-70.552;2023-05-25T10:12:34;92069.84;;;14.62;71.31
17521;BME280;8878;-33.370;-70.552;2023-05-25T10:15:10;92070.53;;;14.67;70.68
17521;BME280;8878;-33.370;-70.552;2023-05-25T10:17:52;92072.91;;;14.82;70.37
17521;BME280;8878;-33.370;-70.552;2023-05-25T10:20:23;92080.59;;;14.84;70.38
17521;BME280;8878;-33.370;-70.552;2023-05-25T10:22:59;92076.78;;;14.90;69.87
17521;BME280;8878;-33.370;-70.552;2023-05-25T10:25:32;92080.22;;;14.91;69.96
17521;BME280;8878;-33.370;-70.552;2023-05-25T10:28:06;92074.09;;;14.76;70.34
17521;BME280;8878;-33.370;-70.552;2023-05-25T10:30:38;92073.31;;;14.76;70.01
17521;BME280;8878;-33.370;-70.552;2023-05-25T10:33:09;92062.72;;;14.57;70.17
17521;BME280;8878;-33.370;-70.552;2023-05-25T10:35:39;92070.63;;;14.62;70.54
17521;BME280;8878;-33.370;-70.552;2023-05-25T10:38:11;92076.03;;;14.71;70.47
17521;BME280;8878;-33.370;-70.552;2023-05-25T10:40:44;92079.97;;;14.73;70.01
17521;BME280;8878;-33.370;-70.552;2023-05-25T10:43:18;92074.09;;;14.76;70.04
17521;BME280;8878;-33.370;-70.552;2023-05-25T10:45:50;92069.97;;;14.70;69.85
17521;BME280;8878;-33.370;-70.552;2023-05-25T10:48:20;92064.31;;;14.58;70.19
17521;BME280;8878;-33.370;-70.552;2023-05-25T10:50:50;92059.50;;;14.60;70.54
17521;BME280;8878;-33.370;-70.552;2023-05-25T10:53:20;92054.34;;;14.50;70.79
17521;BME280;8878;-33.370;-70.552;2023-05-25T10:56:01;92060.34;;;14.23;71.22
17521;BME280;8878;-33.370;-70.552;2023-05-25T10:58:32;92063.06;;;14.18;71.58
17521;BME280;8878;-33.370;-70.552;2023-05-25T11:01:07;92055.81;;;14.24;71.70
17521;BME280;8878;-33.370;-70.552;2023-05-25T11:03:53;92061.72;;;14.21;71.82
17521;BME280;8878;-33.370;-70.552;2023-05-25T11:09:09;92058.09;;;14.49;71.39
17521;BME280;8878;-33.370;-70.552;2023-05-25T11:12:04;92061.06;;;14.61;70.43
17521;BME280;8878;-33.370;-70.552;2023-05-25T11:14:34;92062.03;;;14.52;70.48
17521;BME280;8878;-33.370;-70.552;2023-05-25T11:17:10;92063.31;;;14.54;70.92
17521;BME280;8878;-33.370;-70.552;2023-05-25T11:19:45;92063.06;;;14.69;70.15
17521;BME280;8878;-33.370;-70.552;2023-05-25T11:22:15;92059.09;;;14.53;70.10
17521;BME280;8878;-33.370;-70.552;2023-05-25T11:24:46;92052.19;;;14.52;69.93
17521;BME280;8878;-33.370;-70.552;2023-05-25T11:27:21;92052.09;;;14.57;70.64
17521;BME280;8878;-33.370;-70.552;2023-05-25T11:29:51;92045.34;;;14.65;70.08
17521;BME280;8878;-33.370;-70.552;2023-05-25T11:32:24;92050.94;;;14.31;70.42
17521;BME280;8878;-33.370;-70.552;2023-05-25T11:34:54;92053.88;;;14.48;70.28
17521;BME280;8878;-33.370;-70.552;2023-05-25T11:37:26;92054.84;;;14.20;70.96
17521;BME280;8878;-33.370;-70.552;2023-05-25T11:39:57;92054.53;;;14.40;70.83
17521;BME280;8878;-33.370;-70.552;2023-05-25T11:42:27;92062.78;;;14.38;70.76
17521;BME280;8878;-33.370;-70.552;2023-05-25T11:45:01;92061.63;;;14.26;70.94
17521;BME280;8878;-33.370;-70.552;2023-05-25T11:47:33;92053.03;;;14.34;70.98
17521;BME280;8878;-33.370;-70.552;2023-05-25T11:50:02;92051.78;;;14.45;71.18
17521;BME280;8878;-33.370;-70.552;2023-05-25T11:52:32;92065.50;;;14.33;70.62
17521;BME280;8878;-33.370;-70.552;2023-05-25T11:55:10;92066.13;;;14.44;70.62
17521;BME280;8878;-33.370;-70.552;2023-05-25T11:57:40;92065.38;;;14.57;70.77
17521;BME280;8878;-33.370;-70.552;2023-05-25T12:00:11;92065.78;;;14.32;70.81
17521;BME280;8878;-33.370;-70.552;2023-05-25T12:02:42;92070.50;;;14.54;70.99
17521;BME280;8878;-33.370;-70.552;2023-05-25T12:05:12;92075.44;;;14.60;70.37
17521;BME280;8878;-33.370;-70.552;2023-05-25T12:07:43;92078.00;;;14.65;70.39
17521;BME280;8878;-33.370;-70.552;2023-05-25T12:10:13;92075.84;;;14.67;70.01
17521;BME280;8878;-33.370;-70.552;2023-05-25T12:12:44;92075.44;;;14.60;69.62
17521;BME280;8878;-33.370;-70.552;2023-05-25T12:15:15;92071.00;;;14.37;70.54
17521;BME280;8878;-33.370;-70.552;2023-05-25T12:17:47;92082.28;;;14.47;70.68
17521;BME280;8878;-33.370;-70.552;2023-05-25T12:20:18;92079.84;;;14.32;70.97
17521;BME280;8878;-33.370;-70.552;2023-05-25T12:22:48;92092.69;;;14.44;70.75
17521;BME280;8878;-33.370;-70.552;2023-05-25T12:25:19;92078.50;;;14.67;70.83
17521;BME280;8878;-33.370;-70.552;2023-05-25T12:28:09;92090.56;;;14.60;69.93
17521;BME280;8878;-33.370;-70.552;2023-05-25T12:30:38;92091.69;;;14.40;70.90
17521;BME280;8878;-33.370;-70.552;2023-05-25T12:33:12;92102.25;;;14.59;70.90
17521;BME280;8878;-33.370;-70.552;2023-05-25T12:35:46;92107.31;;;14.74;70.61
17521;BME280;8878;-33.370;-70.552;2023-05-25T12:38:16;92119.56;;;14.88;70.29
17521;BME280;8878;-33.370;-70.552;2023-05-25T12:40:48;92115.50;;;14.77;69.73
17521;BME280;8878;-33.370;-70.552;2023-05-25T12:43:37;92115.81;;;14.89;69.43
17521;BME280;8878;-33.370;-70.552;2023-05-25T12:46:08;92121.97;;;14.71;69.97
17521;BME280;8878;-33.370;-70.552;2023-05-25T12:48:41;92121.91;;;14.58;70.63
17521;BME280;8878;-33.370;-70.552;2023-05-25T12:51:10;92124.63;;;14.71;70.42
17521;BME280;8878;-33.370;-70.552;2023-05-25T12:53:49;92125.94;;;14.87;70.17
17521;BME280;8878;-33.370;-70.552;2023-05-25T12:56:20;92122.94;;;15.08;69.25
17521;BME280;8878;-33.370;-70.552;2023-05-25T12:58:49;92128.66;;;15.15;69.09
17521;BME280;8878;-33.370;-70.552;2023-05-25T13:01:19;92134.56;;;15.25;68.55
17521;BME280;8878;-33.370;-70.552;2023-05-25T13:03:50;92143.34;;;15.26;68.57